sensor_id;sensor_type;location;lat;lon;timestamp;P1;durP1;ratioP1;P2;durP2;ratioP2
32200;SDS011;18701;45.588;5.288;2023-03-08T00:01:35;25.45;;;14.27;;
32200;SDS011;18701;45.588;5.288;2023-03-08T00:04:01;28.95;;;15.48;;
32200;SDS011;18701;45.588;5.288;2023-03-08T00:06:27;27.45;;;14.93;;
32200;SDS011;18701;45.588;5.288;2023-03-08T00:08:53;25.33;;;13.48;;
32200;SDS011;18701;45.588;5.288;2023-03-08T00:11:20;25.45;;;14.05;;
32200;SDS011;18701;45.588;5.288;2023-03-08T00:13:46;28.60;;;15.35;;
32200;SDS011;18701;45.588;5.288;2023-03-08T00:16:11;28.20;;;15.00;;
32200;SDS011;18701;45.588;5.288;2023-03-08T00:18:38;23.63;;;13.45;;
32200;SDS011;18701;45.588;5.288;2023-03-08T00:21:05;24.08;;;13.50;;
32200;SDS011;18701;45.588;5.288;2023-03-08T00:23:33;24.52;;;13.63;;
32200;SDS011;18701;45.588;5.288;2023-03-08T00:25:58;24.20;;;14.70;;
32200;SDS011;18701;45.588;5.288;2023-03-08T00:28:24;28.65;;;14.23;;
32200;SDS011;18701;45.588;5.288;2023-03-08T00:31:00;24.02;;;14.35;;
32200;SDS011;18701;45.588;5.288;2023-03-08T00:33:27;24.60;;;15.23;;
32200;SDS011;18701;45.588;5.288;2023-03-08T00:35:58;23.73;;;14.52;;
32200;SDS011;18701;45.588;5.288;2023-03-08T00:38:24;24.73;;;15.15;;
32200;SDS011;18701;45.588;5.288;2023-03-08T00:40:51;27.48;;;14.95;;
32200;SDS011;18701;45.588;5.288;2023-03-08T00:43:16;26.95;;;15.07;;
32200;SDS011;18701;45.588;5.288;2023-03-08T00:45:42;27.75;;;14.88;;
32200;SDS011;18701;45.588;5.288;2023-03-08T00:48:08;26.88;;;14.32;;
32200;SDS011;18701;45.588;5.288;2023-03-08T00:50:33;25.17;;;13.65;;
32200;SDS011;18701;45.588;5.288;2023-03-08T00:52:59;23.25;;;13.93;;
32200;SDS011;18701;45.588;5.288;2023-03-08T00:55:24;26.27;;;14.50;;
32200;SDS011;18701;45.588;5.288;2023-03-08T00:57:50;23.35;;;13.38;;
32200;SDS011;18701;45.588;5.288;2023-03-08T01:00:16;27.73;;;14.40;;
32200;SDS011;18701;45.588;5.288;2023-03-08T01:02:42;25.45;;;14.60;;
32200;SDS011;18701;45.588;5.288;2023-03-08T01:05:08;27.42;;;13.98;;
32200;SDS011;18701;45.588;5.288;2023-03-08T01:07:34;24.40;;;13.88;;
32200;SDS011;18701;45.588;5.288;2023-03-08T01:10:00;20.55;;;12.88;;
32200;SDS011;18701;45.588;5.288;2023-03-08T01:12:25;23.23;;;12.18;;
32200;SDS011;18701;45.588;5.288;2023-03-08T01:14:51;22.88;;;12.75;;
32200;SDS011;18701;45.588;5.288;2023-03-08T01:17:17;25.30;;;13.32;;
32200;SDS011;18701;45.588;5.288;2023-03-08T01:19:43;26.67;;;14.27;;
32200;SDS011;18701;45.588;5.288;2023-03-08T01:22:09;25.83;;;13.82;;
32200;SDS011;18701;45.588;5.288;2023-03-08T01:24:34;25.50;;;14.73;;
32200;SDS011;18701;45.588;5.288;2023-03-08T01:27:00;24.85;;;13.80;;
32200;SDS011;18701;45.588;5.288;2023-03-08T01:29:26;23.20;;;12.90;;
32200;SDS011;18701;45.588;5.288;2023-03-08T01:31:52;22.25;;;13.23;;
32200;SDS011;18701;45.588;5.288;2023-03-08T01:34:19;24.45;;;13.45;;
32200;SDS011;18701;45.588;5.288;2023-03-08T01:36:45;24.88;;;13.20;;
32200;SDS011;18701;45.588;5.288;2023-03-08T01:39:10;20.80;;;12.60;;
32200;SDS011;18701;45.588;5.288;2023-03-08T01:41:36;22.13;;;12.70;;
32200;SDS011;18701;45.588;5.288;2023-03-08T01:44:02;21.73;;;13.00;;
32200;SDS011;18701;45.588;5.288;2023-03-08T01:49:10;22.73;;;13.63;;
32200;SDS011;18701;45.588;5.288;2023-03-08T01:51:55;23.40;;;12.65;;
32200;SDS011;18701;45.588;5.288;2023-03-08T01:54:22;22.10;;;13.95;;
32200;SDS011;18701;45.588;5.288;2023-03-08T01:56:52;22.67;;;13.10;;
32200;SDS011;18701;45.588;5.288;2023-03-08T01:59:22;22.15;;;12.27;;
32200;SDS011;18701;45.588;5.288;2023-03-08T02:01:48;19.75;;;12.02;;
32200;SDS011;18701;45.588;5.288;2023-03-08T02:04:14;23.42;;;12.05;;
32200;SDS011;18701;45.588;5.288;2023-03-08T02:06:39;22.50;;;12.70;;
32200;SDS011;18701;45.588;5.288;2023-03-08T02:09:06;22.77;;;12.40;;
32200;SDS011;18701;45.588;5.288;2023-03-08T02:11:33;20.45;;;11.85;;
32200;SDS011;18701;45.588;5.288;2023-03-08T02:14:00;20.48;;;11.35;;
32200;SDS011;18701;45.588;5.288;2023-03-08T02:16:26;18.58;;;11.70;;
32200;SDS011;18701;45.588;5.288;2023-03-08T02:18:55;21.48;;;12.00;;
32200;SDS011;18701;45.588;5.288;2023-03-08T02:21:23;22.23;;;11.85;;
32200;SDS011;18701;45.588;5.288;2023-03-08T02:23:49;21.77;;;12.18;;
32200;SDS011;18701;45.588;5.288;2023-03-08T02:26:15;23.05;;;12.57;;
32200;SDS011;18701;45.588;5.288;2023-03-08T02:28:41;22.30;;;11.77;;
32200;SDS011;18701;45.588;5.288;2023-03-08T02:31:09;21.02;;;11.80;;
32200;SDS011;18701;45.588;5.288;2023-03-08T02:33:35;21.15;;;12.13;;
32200;SDS011;18701;45.588;5.288;2023-03-08T02:36:01;22.17;;;12.60;;
32200;SDS011;18701;45.588;5.288;2023-03-08T02:38:28;20.88;;;11.27;;
32200;SDS011;18701;45.588;5.288;2023-03-08T02:40:55;19.83;;;11.65;;
32200;SDS011;18701;45.588;5.288;2023-03-08T02:43:20;18.95;;;11.32;;
32200;SDS011;18701;45.588;5.288;2023-03-08T02:45:46;22.00;;;10.93;;
32200;SDS011;18701;45.588;5.288;2023-03-08T02:48:12;19.98;;;10.45;;
32200;SDS011;18701;45.588;5.288;2023-03-08T02:50:39;19.85;;;10.85;;
32200;SDS011;18701;45.588;5.288;2023-03-08T02:53:05;18.50;;;10.88;;
32200;SDS011;18701;45.588;5.288;2023-03-08T02:55:31;20.63;;;12.20;;
32200;SDS011;18701;45.588;5.288;2023-03-08T02:58:00;23.35;;;12.30;;
32200;SDS011;18701;45.588;5.288;2023-03-08T03:00:27;24.55;;;13.18;;
32200;SDS011;18701;45.588;5.288;2023-03-08T03:02:53;19.25;;;12.35;;
32200;SDS011;18701;45.588;5.288;2023-03-08T03:05:18;22.88;;;12.48;;
32200;SDS011;18701;45.588;5.288;2023-03-08T03:07:44;21.77;;;12.52;;
32200;SDS011;18701;45.588;5.288;2023-03-08T03:10:10;20.63;;;12.45;;
32200;SDS011;18701;45.588;5.288;2023-03-08T03:12:37;21.27;;;11.98;;
32200;SDS011;18701;45.588;5.288;2023-03-08T03:15:04;23.15;;;12.60;;
32200;SDS011;18701;45.588;5.288;2023-03-08T03:17:30;20.48;;;11.00;;
32200;SDS011;18701;45.588;5.288;2023-03-08T03:19:56;23.25;;;11.80;;
32200;SDS011;18701;45.588;5.288;2023-03-08T03:22:22;22.10;;;11.65;;
32200;SDS011;18701;45.588;5.288;2023-03-08T03:24:51;21.73;;;12.00;;
32200;SDS011;18701;45.588;5.288;2023-03-08T03:27:17;21.75;;;12.27;;
32200;SDS011;18701;45.588;5.288;2023-03-08T03:29:43;20.75;;;11.68;;
32200;SDS011;18701;45.588;5.288;2023-03-08T03:32:09;23.55;;;13.00;;
32200;SDS011;18701;45.588;5.288;2023-03-08T03:34:34;22.60;;;13.20;;
32200;SDS011;18701;45.588;5.288;2023-03-08T03:37:00;24.05;;;12.18;;
32200;SDS011;18701;45.588;5.288;2023-03-08T03:39:26;20.40;;;12.23;;
32200;SDS011;18701;45.588;5.288;2023-03-08T03:41:57;19.95;;;12.15;;
32200;SDS011;18701;45.588;5.288;2023-03-08T03:44:23;23.02;;;12.40;;
32200;SDS011;18701;45.588;5.288;2023-03-08T03:46:49;22.80;;;13.13;;
32200;SDS011;18701;45.588;5.288;2023-03-08T03:49:14;19.25;;;12.15;;
32200;SDS011;18701;45.588;5.288;2023-03-08T03:51:40;19.00;;;11.23;;
32200;SDS011;18701;45.588;5.288;2023-03-08T03:54:06;21.25;;;12.38;;
32200;SDS011;18701;45.588;5.288;2023-03-08T03:56:31;19.75;;;11.38;;
32200;SDS011;18701;45.588;5.288;2023-03-08T03:58:57;21.58;;;12.00;;
32200;SDS011;18701;45.588;5.288;2023-03-08T04:01:24;22.55;;;12.13;;
32200;SDS011;18701;45.588;5.288;2023-03-08T04:03:52;22.83;;;12.43;;
32200;SDS011;18701;45.588;5.288;2023-03-08T04:08:44;19.20;;;12.30;;
32200;SDS011;18701;45.588;5.288;2023-03-08T04:11:11;24.02;;;12.77;;
32200;SDS011;18701;45.588;5.288;2023-03-08T04:13:38;19.45;;;11.18;;
32200;SDS011;18701;45.588;5.288;2023-03-08T04:16:11;22.83;;;13.07;;
32200;SDS011;18701;45.588;5.288;2023-03-08T04:18:38;18.77;;;11.82;;
32200;SDS011;18701;45.588;5.288;2023-03-08T04:21:04;22.27;;;11.75;;
32200;SDS011;18701;45.588;5.288;2023-03-08T04:23:30;15.55;;;9.52;;
32200;SDS011;18701;45.588;5.288;2023-03-08T04:25:55;14.20;;;8.98;;
32200;SDS011;18701;45.588;5.288;2023-03-08T04:28:21;15.45;;;7.55;;
32200;SDS011;18701;45.588;5.288;2023-03-08T04:30:47;12.07;;;7.38;;
32200;SDS011;18701;45.588;5.288;2023-03-08T04:33:12;15.35;;;7.43;;
32200;SDS011;18701;45.588;5.288;2023-03-08T04:35:38;11.57;;;7.70;;
32200;SDS011;18701;45.588;5.288;2023-03-08T04:38:04;16.88;;;9.25;;
32200;SDS011;18701;45.588;5.288;2023-03-08T04:40:29;18.65;;;9.55;;
32200;SDS011;18701;45.588;5.288;2023-03-08T04:42:55;18.23;;;10.38;;
32200;SDS011;18701;45.588;5.288;2023-03-08T04:45:21;19.08;;;10.15;;
32200;SDS011;18701;45.588;5.288;2023-03-08T04:47:46;15.70;;;10.05;;
32200;SDS011;18701;45.588;5.288;2023-03-08T04:50:12;14.73;;;7.72;;
32200;SDS011;18701;45.588;5.288;2023-03-08T04:52:38;14.50;;;8.20;;
32200;SDS011;18701;45.588;5.288;2023-03-08T04:55:04;13.52;;;8.98;;
32200;SDS011;18701;45.588;5.288;2023-03-08T04:57:30;15.75;;;7.15;;
32200;SDS011;18701;45.588;5.288;2023-03-08T04:59:56;14.85;;;8.02;;
32200;SDS011;18701;45.588;5.288;2023-03-08T05:02:21;13.63;;;7.93;;
32200;SDS011;18701;45.588;5.288;2023-03-08T05:04:47;9.35;;;5.78;;
32200;SDS011;18701;45.588;5.288;2023-03-08T05:07:14;8.80;;;5.00;;
32200;SDS011;18701;45.588;5.288;2023-03-08T05:09:39;11.30;;;4.82;;
32200;SDS011;18701;45.588;5.288;2023-03-08T05:12:05;10.20;;;4.57;;
32200;SDS011;18701;45.588;5.288;2023-03-08T05:14:31;6.80;;;3.97;;
32200;SDS011;18701;45.588;5.288;2023-03-08T05:16:57;11.27;;;5.45;;
32200;SDS011;18701;45.588;5.288;2023-03-08T05:19:23;11.48;;;6.22;;
32200;SDS011;18701;45.588;5.288;2023-03-08T05:21:49;8.18;;;4.70;;
32200;SDS011;18701;45.588;5.288;2023-03-08T05:24:15;11.13;;;5.78;;
32200;SDS011;18701;45.588;5.288;2023-03-08T05:26:40;15.25;;;5.60;;
32200;SDS011;18701;45.588;5.288;2023-03-08T05:29:06;10.57;;;5.63;;
32200;SDS011;18701;45.588;5.288;2023-03-08T05:31:32;8.05;;;4.97;;
32200;SDS011;18701;45.588;5.288;2023-03-08T05:34:00;7.68;;;3.97;;
32200;SDS011;18701;45.588;5.288;2023-03-08T05:36:26;8.32;;;4.28;;
32200;SDS011;18701;45.588;5.288;2023-03-08T05:38:54;9.38;;;4.05;;
32200;SDS011;18701;45.588;5.288;2023-03-08T05:41:20;6.95;;;3.60;;
32200;SDS011;18701;45.588;5.288;2023-03-08T05:43:46;7.80;;;4.00;;
32200;SDS011;18701;45.588;5.288;2023-03-08T05:46:16;7.20;;;4.25;;
32200;SDS011;18701;45.588;5.288;2023-03-08T05:48:43;6.43;;;3.58;;
32200;SDS011;18701;45.588;5.288;2023-03-08T05:51:10;5.75;;;3.33;;
32200;SDS011;18701;45.588;5.288;2023-03-08T05:53:38;6.43;;;3.13;;
32200;SDS011;18701;45.588;5.288;2023-03-08T05:58:34;7.10;;;3.63;;
32200;SDS011;18701;45.588;5.288;2023-03-08T06:01:06;5.65;;;3.38;;
32200;SDS011;18701;45.588;5.288;2023-03-08T06:03:33;6.65;;;3.08;;
32200;SDS011;18701;45.588;5.288;2023-03-08T06:05:59;8.02;;;3.67;;
32200;SDS011;18701;45.588;5.288;2023-03-08T06:08:24;6.68;;;3.13;;
32200;SDS011;18701;45.588;5.288;2023-03-08T06:10:50;6.18;;;3.83;;
32200;SDS011;18701;45.588;5.288;2023-03-08T06:13:16;6.35;;;4.00;;
32200;SDS011;18701;45.588;5.288;2023-03-08T06:15:41;8.05;;;3.97;;
32200;SDS011;18701;45.588;5.288;2023-03-08T06:18:07;6.60;;;3.53;;
32200;SDS011;18701;45.588;5.288;2023-03-08T06:20:32;5.50;;;3.50;;
32200;SDS011;18701;45.588;5.288;2023-03-08T06:22:58;8.95;;;3.33;;
32200;SDS011;18701;45.588;5.288;2023-03-08T06:25:23;5.38;;;3.08;;
32200;SDS011;18701;45.588;5.288;2023-03-08T06:27:49;8.18;;;3.90;;
32200;SDS011;18701;45.588;5.288;2023-03-08T06:30:15;10.55;;;3.72;;
32200;SDS011;18701;45.588;5.288;2023-03-08T06:32:40;5.45;;;3.00;;
32200;SDS011;18701;45.588;5.288;2023-03-08T06:35:07;7.80;;;3.42;;
32200;SDS011;18701;45.588;5.288;2023-03-08T06:37:33;7.85;;;3.53;;
32200;SDS011;18701;45.588;5.288;2023-03-08T06:39:59;9.70;;;3.83;;
32200;SDS011;18701;45.588;5.288;2023-03-08T06:42:26;5.63;;;3.65;;
32200;SDS011;18701;45.588;5.288;2023-03-08T06:44:51;10.85;;;3.88;;
32200;SDS011;18701;45.588;5.288;2023-03-08T06:47:17;7.50;;;3.22;;
32200;SDS011;18701;45.588;5.288;2023-03-08T06:49:42;4.57;;;3.05;;
32200;SDS011;18701;45.588;5.288;2023-03-08T06:52:08;6.68;;;3.33;;
32200;SDS011;18701;45.588;5.288;2023-03-08T06:54:34;7.63;;;2.83;;
32200;SDS011;18701;45.588;5.288;2023-03-08T06:56:59;7.90;;;3.08;;
32200;SDS011;18701;45.588;5.288;2023-03-08T06:59:25;5.68;;;2.83;;
32200;SDS011;18701;45.588;5.288;2023-03-08T07:01:50;13.40;;;3.15;;
32200;SDS011;18701;45.588;5.288;2023-03-08T07:04:16;6.00;;;2.03;;
32200;SDS011;18701;45.588;5.288;2023-03-08T07:06:42;7.40;;;2.70;;
32200;SDS011;18701;45.588;5.288;2023-03-08T07:09:08;7.20;;;2.90;;
32200;SDS011;18701;45.588;5.288;2023-03-08T07:11:34;5.65;;;2.92;;
32200;SDS011;18701;45.588;5.288;2023-03-08T07:14:00;8.73;;;3.35;;
32200;SDS011;18701;45.588;5.288;2023-03-08T07:16:25;6.60;;;2.85;;
32200;SDS011;18701;45.588;5.288;2023-03-08T07:18:51;5.65;;;2.88;;
32200;SDS011;18701;45.588;5.288;2023-03-08T07:21:17;10.55;;;3.05;;
32200;SDS011;18701;45.588;5.288;2023-03-08T07:23:42;7.13;;;3.03;;
32200;SDS011;18701;45.588;5.288;2023-03-08T07:26:08;7.13;;;3.20;;
32200;SDS011;18701;45.588;5.288;2023-03-08T07:28:34;8.30;;;2.70;;
32200;SDS011;18701;45.588;5.288;2023-03-08T07:31:00;9.15;;;2.70;;
32200;SDS011;18701;45.588;5.288;2023-03-08T07:33:26;8.98;;;2.80;;
32200;SDS011;18701;45.588;5.288;2023-03-08T07:35:52;8.50;;;2.78;;
32200;SDS011;18701;45.588;5.288;2023-03-08T07:38:18;7.55;;;2.92;;
32200;SDS011;18701;45.588;5.288;2023-03-08T07:40:43;3.72;;;2.30;;
32200;SDS011;18701;45.588;5.288;2023-03-08T07:43:09;3.05;;;1.75;;
32200;SDS011;18701;45.588;5.288;2023-03-08T07:45:36;3.45;;;1.83;;
32200;SDS011;18701;45.588;5.288;2023-03-08T07:48:03;2.90;;;1.77;;
32200;SDS011;18701;45.588;5.288;2023-03-08T07:50:30;3.72;;;1.80;;
32200;SDS011;18701;45.588;5.288;2023-03-08T07:52:55;4.18;;;1.70;;
32200;SDS011;18701;45.588;5.288;2023-03-08T07:55:22;5.93;;;1.90;;
32200;SDS011;18701;45.588;5.288;2023-03-08T07:57:49;3.70;;;1.70;;
32200;SDS011;18701;45.588;5.288;2023-03-08T08:00:15;3.50;;;1.40;;
32200;SDS011;18701;45.588;5.288;2023-03-08T08:02:41;2.85;;;0.93;;
32200;SDS011;18701;45.588;5.288;2023-03-08T08:05:07;1.90;;;1.05;;
32200;SDS011;18701;45.588;5.288;2023-03-08T08:07:33;3.17;;;1.52;;
32200;SDS011;18701;45.588;5.288;2023-03-08T08:09:59;1.38;;;0.80;;
32200;SDS011;18701;45.588;5.288;2023-03-08T08:12:24;1.30;;;0.90;;
32200;SDS011;18701;45.588;5.288;2023-03-08T08:14:50;1.58;;;0.75;;
32200;SDS011;18701;45.588;5.288;2023-03-08T08:17:17;2.78;;;1.15;;
32200;SDS011;18701;45.588;5.288;2023-03-08T08:19:44;1.45;;;0.65;;
32200;SDS011;18701;45.588;5.288;2023-03-08T08:22:09;1.55;;;0.70;;
32200;SDS011;18701;45.588;5.288;2023-03-08T08:24:35;2.75;;;0.75;;
32200;SDS011;18701;45.588;5.288;2023-03-08T08:27:00;3.40;;;0.73;;
32200;SDS011;18701;45.588;5.288;2023-03-08T08:29:26;2.08;;;0.65;;
32200;SDS011;18701;45.588;5.288;2023-03-08T08:31:52;0.95;;;0.63;;
32200;SDS011;18701;45.588;5.288;2023-03-08T08:34:18;4.70;;;0.85;;
32200;SDS011;18701;45.588;5.288;2023-03-08T08:36:45;1.17;;;0.50;;
32200;SDS011;18701;45.588;5.288;2023-03-08T08:39:11;1.83;;;0.60;;
32200;SDS011;18701;45.588;5.288;2023-03-08T08:41:36;0.70;;;0.30;;
32200;SDS011;18701;45.588;5.288;2023-03-08T08:44:02;1.63;;;0.52;;
32200;SDS011;18701;45.588;5.288;2023-03-08T08:46:28;1.55;;;0.22;;
32200;SDS011;18701;45.588;5.288;2023-03-08T08:48:55;4.55;;;0.57;;
32200;SDS011;18701;45.588;5.288;2023-03-08T08:51:22;0.95;;;0.40;;
32200;SDS011;18701;45.588;5.288;2023-03-08T08:53:48;1.85;;;0.90;;
32200;SDS011;18701;45.588;5.288;2023-03-08T08:56:18;2.85;;;0.55;;
32200;SDS011;18701;45.588;5.288;2023-03-08T08:58:46;2.78;;;0.65;;
32200;SDS011;18701;45.588;5.288;2023-03-08T09:01:22;1.50;;;0.82;;
32200;SDS011;18701;45.588;5.288;2023-03-08T09:03:49;4.68;;;0.50;;
32200;SDS011;18701;45.588;5.288;2023-03-08T09:06:16;0.70;;;0.40;;
32200;SDS011;18701;45.588;5.288;2023-03-08T09:08:44;1.10;;;0.63;;
32200;SDS011;18701;45.588;5.288;2023-03-08T09:11:12;2.22;;;0.60;;
32200;SDS011;18701;45.588;5.288;2023-03-08T09:13:38;1.73;;;0.55;;
32200;SDS011;18701;45.588;5.288;2023-03-08T09:16:05;4.45;;;0.77;;
32200;SDS011;18701;45.588;5.288;2023-03-08T09:18:40;2.10;;;0.52;;
32200;SDS011;18701;45.588;5.288;2023-03-08T09:21:06;1.90;;;0.80;;
32200;SDS011;18701;45.588;5.288;2023-03-08T09:23:31;1.40;;;0.50;;
32200;SDS011;18701;45.588;5.288;2023-03-08T09:25:57;1.63;;;0.50;;
32200;SDS011;18701;45.588;5.288;2023-03-08T09:28:24;4.18;;;1.20;;
32200;SDS011;18701;45.588;5.288;2023-03-08T09:30:50;2.38;;;0.82;;
32200;SDS011;18701;45.588;5.288;2023-03-08T09:33:15;15.77;;;7.88;;
32200;SDS011;18701;45.588;5.288;2023-03-08T09:35:41;2.63;;;0.90;;
32200;SDS011;18701;45.588;5.288;2023-03-08T09:38:07;0.90;;;0.50;;
32200;SDS011;18701;45.588;5.288;2023-03-08T09:40:35;2.20;;;0.60;;
32200;SDS011;18701;45.588;5.288;2023-03-08T09:43:08;2.63;;;0.50;;
32200;SDS011;18701;45.588;5.288;2023-03-08T09:45:44;1.40;;;0.40;;
32200;SDS011;18701;45.588;5.288;2023-03-08T09:48:21;0.80;;;0.40;;
32200;SDS011;18701;45.588;5.288;2023-03-08T09:50:55;0.82;;;0.43;;
32200;SDS011;18701;45.588;5.288;2023-03-08T09:53:27;3.50;;;0.43;;
32200;SDS011;18701;45.588;5.288;2023-03-08T09:55:59;1.52;;;0.70;;
32200;SDS011;18701;45.588;5.288;2023-03-08T10:06:49;3.15;;;0.85;;
32200;SDS011;18701;45.588;5.288;2023-03-08T10:09:35;2.90;;;0.57;;
32200;SDS011;18701;45.588;5.288;2023-03-08T10:12:20;1.40;;;0.40;;
32200;SDS011;18701;45.588;5.288;2023-03-08T10:15:09;4.95;;;0.80;;
32200;SDS011;18701;45.588;5.288;2023-03-08T10:17:43;2.00;;;0.90;;
32200;SDS011;18701;45.588;5.288;2023-03-08T10:20:16;1.45;;;1.00;;
32200;SDS011;18701;45.588;5.288;2023-03-08T10:22:43;1.00;;;0.47;;
32200;SDS011;18701;45.588;5.288;2023-03-08T10:27:48;2.45;;;0.40;;
32200;SDS011;18701;45.588;5.288;2023-03-08T10:30:18;1.38;;;0.43;;
32200;SDS011;18701;45.588;5.288;2023-03-08T10:32:47;1.95;;;0.50;;
32200;SDS011;18701;45.588;5.288;2023-03-08T10:35:14;2.50;;;1.58;;
32200;SDS011;18701;45.588;5.288;2023-03-08T10:37:41;2.75;;;1.02;;
32200;SDS011;18701;45.588;5.288;2023-03-08T10:40:15;2.22;;;1.35;;
32200;SDS011;18701;45.588;5.288;2023-03-08T10:42:57;1.20;;;0.70;;
32200;SDS011;18701;45.588;5.288;2023-03-08T10:45:27;3.03;;;1.45;;
32200;SDS011;18701;45.588;5.288;2023-03-08T10:47:57;2.92;;;1.48;;
32200;SDS011;18701;45.588;5.288;2023-03-08T10:50:31;2.72;;;1.00;;
32200;SDS011;18701;45.588;5.288;2023-03-08T10:53:17;5.10;;;0.52;;
32200;SDS011;18701;45.588;5.288;2023-03-08T10:55:45;2.20;;;0.80;;
32200;SDS011;18701;45.588;5.288;2023-03-08T10:58:26;8.52;;;2.30;;
32200;SDS011;18701;45.588;5.288;2023-03-08T11:00:53;1.58;;;0.60;;
32200;SDS011;18701;45.588;5.288;2023-03-08T11:03:21;2.30;;;0.40;;
32200;SDS011;18701;45.588;5.288;2023-03-08T11:05:56;2.50;;;0.70;;
32200;SDS011;18701;45.588;5.288;2023-03-08T11:08:29;2.00;;;1.10;;
32200;SDS011;18701;45.588;5.288;2023-03-08T11:11:02;4.68;;;3.25;;
32200;SDS011;18701;45.588;5.288;2023-03-08T11:13:31;11.82;;;10.93;;
32200;SDS011;18701;45.588;5.288;2023-03-08T11:24:07;4.60;;;4.22;;
32200;SDS011;18701;45.588;5.288;2023-03-08T11:35:23;4.25;;;3.88;;
32200;SDS011;18701;45.588;5.288;2023-03-08T11:38:20;5.68;;;2.70;;
32200;SDS011;18701;45.588;5.288;2023-03-08T11:40:59;6.45;;;5.85;;
32200;SDS011;18701;45.588;5.288;2023-03-08T11:43:50;8.23;;;7.57;;
32200;SDS011;18701;45.588;5.288;2023-03-08T11:52:31;9.23;;;8.35;;
32200;SDS011;18701;45.588;5.288;2023-03-08T11:55:30;8.32;;;7.68;;
32200;SDS011;18701;45.588;5.288;2023-03-08T11:58:54;5.05;;;4.55;;
32200;SDS011;18701;45.588;5.288;2023-03-08T12:01:06;6.63;;;5.90;;
32200;SDS011;18701;45.588;5.288;2023-03-08T12:03:42;5.63;;;5.13;;
32200;SDS011;18701;45.588;5.288;2023-03-08T12:06:12;2.20;;;0.73;;
32200;SDS011;18701;45.588;5.288;2023-03-08T12:08:48;5.05;;;2.38;;
32200;SDS011;18701;45.588;5.288;2023-03-08T12:11:20;14.95;;;13.70;;
32200;SDS011;18701;45.588;5.288;2023-03-08T12:14:17;1.55;;;1.05;;
32200;SDS011;18701;45.588;5.288;2023-03-08T12:24:25;4.50;;;1.00;;
32200;SDS011;18701;45.588;5.288;2023-03-08T12:32:02;1.30;;;0.50;;
32200;SDS011;18701;45.588;5.288;2023-03-08T12:34:39;1.45;;;0.63;;
32200;SDS011;18701;45.588;5.288;2023-03-08T12:37:21;3.30;;;0.82;;
32200;SDS011;18701;45.588;5.288;2023-03-08T12:39:55;3.05;;;1.63;;
32200;SDS011;18701;45.588;5.288;2023-03-08T12:42:35;4.97;;;4.53;;
32200;SDS011;18701;45.588;5.288;2023-03-08T12:45:45;1.70;;;1.30;;
32200;SDS011;18701;45.588;5.288;2023-03-08T12:50:30;2.28;;;0.68;;
32200;SDS011;18701;45.588;5.288;2023-03-08T12:58:33;1.40;;;0.70;;
32200;SDS011;18701;45.588;5.288;2023-03-08T13:01:35;4.82;;;0.82;;
32200;SDS011;18701;45.588;5.288;2023-03-08T13:04:04;5.22;;;4.80;;
32200;SDS011;18701;45.588;5.288;2023-03-08T13:09:24;2.30;;;0.77;;
32200;SDS011;18701;45.588;5.288;2023-03-08T13:11:59;2.20;;;0.77;;
32200;SDS011;18701;45.588;5.288;2023-03-08T13:23:21;9.05;;;7.78;;
32200;SDS011;18701;45.588;5.288;2023-03-08T13:28:34;4.00;;;0.75;;
32200;SDS011;18701;45.588;5.288;2023-03-08T13:33:36;2.35;;;0.80;;
32200;SDS011;18701;45.588;5.288;2023-03-08T13:36:05;1.00;;;0.40;;
32200;SDS011;18701;45.588;5.288;2023-03-08T13:38:38;3.65;;;0.68;;
32200;SDS011;18701;45.588;5.288;2023-03-08T13:41:05;2.20;;;0.90;;
32200;SDS011;18701;45.588;5.288;2023-03-08T13:43:31;33.53;;;30.73;;
32200;SDS011;18701;45.588;5.288;2023-03-08T13:45:59;39.05;;;35.65;;
32200;SDS011;18701;45.588;5.288;2023-03-08T13:48:29;4.28;;;1.45;;
32200;SDS011;18701;45.588;5.288;2023-03-08T13:50:57;21.67;;;19.92;;
32200;SDS011;18701;45.588;5.288;2023-03-08T13:53:33;2.03;;;1.10;;
32200;SDS011;18701;45.588;5.288;2023-03-08T13:56:02;10.30;;;9.50;;
32200;SDS011;18701;45.588;5.288;2023-03-08T13:58:47;2.65;;;1.73;;
32200;SDS011;18701;45.588;5.288;2023-03-08T14:03:42;2.75;;;2.08;;
32200;SDS011;18701;45.588;5.288;2023-03-08T14:06:28;30.65;;;27.75;;
32200;SDS011;18701;45.588;5.288;2023-03-08T14:08:57;5.10;;;3.72;;
32200;SDS011;18701;45.588;5.288;2023-03-08T14:11:33;5.57;;;5.15;;
32200;SDS011;18701;45.588;5.288;2023-03-08T14:14:03;7.13;;;4.75;;
32200;SDS011;18701;45.588;5.288;2023-03-08T14:16:34;16.55;;;14.85;;
32200;SDS011;18701;45.588;5.288;2023-03-08T14:19:10;19.15;;;17.35;;
32200;SDS011;18701;45.588;5.288;2023-03-08T14:21:52;34.90;;;31.77;;
32200;SDS011;18701;45.588;5.288;2023-03-08T14:24:22;12.07;;;11.05;;
32200;SDS011;18701;45.588;5.288;2023-03-08T14:27:26;5.30;;;3.42;;
32200;SDS011;18701;45.588;5.288;2023-03-08T14:29:38;17.27;;;15.98;;
32200;SDS011;18701;45.588;5.288;2023-03-08T14:34:45;2.88;;;1.40;;
32200;SDS011;18701;45.588;5.288;2023-03-08T14:37:28;3.47;;;1.20;;
32200;SDS011;18701;45.588;5.288;2023-03-08T14:40:07;4.05;;;1.95;;
32200;SDS011;18701;45.588;5.288;2023-03-08T14:42:43;4.30;;;2.67;;
32200;SDS011;18701;45.588;5.288;2023-03-08T14:47:50;4.97;;;2.50;;
32200;SDS011;18701;45.588;5.288;2023-03-08T14:50:56;4.25;;;2.40;;
32200;SDS011;18701;45.588;5.288;2023-03-08T14:53:28;3.55;;;1.40;;
32200;SDS011;18701;45.588;5.288;2023-03-08T14:55:59;4.28;;;1.40;;
32200;SDS011;18701;45.588;5.288;2023-03-08T14:58:30;6.38;;;3.80;;
32200;SDS011;18701;45.588;5.288;2023-03-08T15:00:59;4.47;;;2.10;;
32200;SDS011;18701;45.588;5.288;2023-03-08T15:03:25;3.75;;;1.70;;
32200;SDS011;18701;45.588;5.288;2023-03-08T15:05:52;3.70;;;2.53;;
32200;SDS011;18701;45.588;5.288;2023-03-08T15:08:19;5.85;;;2.85;;
32200;SDS011;18701;45.588;5.288;2023-03-08T15:10:45;4.07;;;1.98;;
32200;SDS011;18701;45.588;5.288;2023-03-08T15:13:17;3.50;;;1.65;;
32200;SDS011;18701;45.588;5.288;2023-03-08T15:15:44;3.50;;;1.75;;
32200;SDS011;18701;45.588;5.288;2023-03-08T15:18:10;4.78;;;1.92;;
32200;SDS011;18701;45.588;5.288;2023-03-08T15:20:37;7.47;;;5.47;;
32200;SDS011;18701;45.588;5.288;2023-03-08T15:23:11;3.55;;;2.17;;
32200;SDS011;18701;45.588;5.288;2023-03-08T15:25:41;5.97;;;2.92;;
32200;SDS011;18701;45.588;5.288;2023-03-08T15:28:09;2.75;;;1.98;;
32200;SDS011;18701;45.588;5.288;2023-03-08T15:30:37;4.40;;;3.30;;
32200;SDS011;18701;45.588;5.288;2023-03-08T15:33:03;11.82;;;8.40;;
32200;SDS011;18701;45.588;5.288;2023-03-08T15:35:28;4.78;;;1.50;;
32200;SDS011;18701;45.588;5.288;2023-03-08T15:37:55;2.30;;;1.67;;
32200;SDS011;18701;45.588;5.288;2023-03-08T15:40:21;2.03;;;1.20;;
32200;SDS011;18701;45.588;5.288;2023-03-08T15:42:49;6.53;;;1.40;;
32200;SDS011;18701;45.588;5.288;2023-03-08T15:45:15;4.13;;;2.13;;
32200;SDS011;18701;45.588;5.288;2023-03-08T15:47:41;3.75;;;1.60;;
32200;SDS011;18701;45.588;5.288;2023-03-08T15:50:14;3.47;;;1.60;;
32200;SDS011;18701;45.588;5.288;2023-03-08T15:52:42;5.30;;;1.80;;
32200;SDS011;18701;45.588;5.288;2023-03-08T15:55:09;3.65;;;1.08;;
32200;SDS011;18701;45.588;5.288;2023-03-08T15:57:36;5.22;;;2.90;;
32200;SDS011;18701;45.588;5.288;2023-03-08T16:00:03;3.17;;;1.48;;
32200;SDS011;18701;45.588;5.288;2023-03-08T16:02:33;1.88;;;1.20;;
32200;SDS011;18701;45.588;5.288;2023-03-08T16:05:00;3.53;;;1.67;;
32200;SDS011;18701;45.588;5.288;2023-03-08T16:07:26;4.85;;;1.35;;
32200;SDS011;18701;45.588;5.288;2023-03-08T16:09:52;8.95;;;2.20;;
32200;SDS011;18701;45.588;5.288;2023-03-08T16:12:17;5.97;;;2.63;;
32200;SDS011;18701;45.588;5.288;2023-03-08T16:14:46;4.05;;;1.27;;